Información del aeropuerto LEPP

Información de pista
Pista 15 Longitud 0 ft Anchura 0 ft
Elevación 1468 ft Umbral 0 ft Rumbo 0
Pista 33 Longitud 0 ft Anchura 0 ft
Elevación 1500 ft Umbral 0 ft Rumbo 0
Pista 16 Longitud 7241 ft Anchura 148 ft
Elevación 1468 ft Umbral 0 ft Rumbo 152
Pista 34 Longitud 7241 ft Anchura 148 ft
Elevación 1504 ft Umbral 984 ft Rumbo 332
Frecuencias del aeropuerto
Tipo APP Nombre APP Frecuencia 118.2 MHZ
Tipo GND Nombre GND Frecuencia 121.7 MHZ
Tipo TWR Nombre TWR Frecuencia 118.2 MHZ
Radioayudas del aeropuerto
Tipo NDB Nombre Pamplona Frecuencia 422 KHZ
Tipo VOR-DME Nombre Pamplona Frecuencia 113550 KHZ
Tipo VOR-DME Nombre Pamplona Frecuencia 112300 KHZ
Información meteorológica del aeropuerto y NOTAM
ADDS - METARS form results

(0236 UTC 23 January 2022)
Data provider http://aviationweather.gov/metar/data/
 
METAR text: LEPP 230230Z AUTO 17002KT CAVOK M03/M04 Q1028
Conditions at: LEPP (PAMPLONA/NOAIN , ES) observed 0230 UTC 23 January 2022
Temperature: -3.0°C (27°F)
Dewpoint: -4.0°C (25°F) [RH = 93%]
Pressure (altimeter): 30.35 inches Hg (1028.0 mb)
Winds: from the S (170 degrees) at 2 MPH (2 knots; 1.0 m/s)
Visibility: 6 or more miles (10+ km)
Ceiling: ceiling and visibility are OK
Clouds: unknown
Weather: no significant weather observed at this time

METAR text: LEPP 230200Z AUTO 18003KT CAVOK M03/M04 Q1028
Conditions at: LEPP (PAMPLONA/NOAIN , ES) observed 0200 UTC 23 January 2022
Temperature: -3.0°C (27°F)
Dewpoint: -4.0°C (25°F) [RH = 93%]
Pressure (altimeter): 30.35 inches Hg (1028.0 mb)
Winds: from the S (180 degrees) at 3 MPH (3 knots; 1.5 m/s)
Visibility: 6 or more miles (10+ km)
Ceiling: ceiling and visibility are OK
Clouds: unknown
Weather: no significant weather observed at this time

Forecast for: LEPP (PAMPLONA/NOAIN , ES)
Text: TAF LEPP 230200Z 2303/2403 17005KT CAVOK TX09/2314Z TNM04/2306Z
Forecast period: 0300 UTC 23 January 2022 to 0300 UTC 24 January 2022
Forecast type: FROM: standard forecast or significant change
Winds: from the S (170 degrees) at 6 MPH (5 knots; 2.6 m/s)
Visibility: 6 or more miles (10+ km)
Ceiling: unknown
Clouds: missing
Weather: no significant weather forecast for this period
Text: PROB30
Forecast period: 0500 to 0800 UTC 23 January 2022
Forecast type: TEMPORARY: The following changes expected for less than half the time period
Visibility: 1.86 miles (2.99 km)
Ceiling: unknown
Clouds: missing
Weather: BR BCFG  (mist, patches of fog)
Text: TEMPO 2305/2308 3000 BR BCFG
Forecast period: 0600 to 0800 UTC 23 January 2022
Forecast type: TEMPORARY: The following changes expected for less than half the time period
Visibility: 0.50 miles (0.80 km)
Ceiling: unknown
Clouds: missing
Weather: FZFG  (freezing fog)